Time;durP1;ratioP1;P1;durP2;ratioP2;P2;SDS_P1;SDS_P2;PMS_P1;PMS_P2;Temp;Humidity;BMP_temperature;BMP_pressure;BME280_temperature;BME280_humidity;BME280_pressure;Samples;Min_cycle;Max_cycle;Signal;HPM_P1;HPM_P2
2022/07/05 00:00:59;;;;;;;1.08;0.45;;;13.30;99.90;;;;;;5077389;28;20466;-76
2022/07/05 00:03:25;;;;;;;0.70;0.10;;;13.30;99.90;;;;;;5095819;28;20028;-76
2022/07/05 00:05:52;;;;;;;0.95;0.30;;;13.30;99.90;;;;;;5095666;28;20035;-76
2022/07/05 00:08:18;;;;;;;2.60;0.25;;;13.30;99.90;;;;;;5096019;28;20385;-77
2022/07/05 00:10:44;;;;;;;2.05;0.10;;;13.30;99.90;;;;;;5095777;28;20077;-76
2022/07/05 00:13:10;;;;;;;2.47;0.10;;;13.20;99.90;;;;;;5077201;28;20032;-76
2022/07/05 00:15:36;;;;;;;0.47;0.10;;;13.20;99.90;;;;;;5077038;28;20388;-76
2022/07/05 00:18:01;;;;;;;1.55;0.10;;;13.20;99.90;;;;;;5095904;28;20046;-76
2022/07/05 00:20:28;;;;;;;0.82;0.10;;;13.10;99.90;;;;;;5095657;28;20103;-76
2022/07/05 00:22:53;;;;;;;1.25;0.15;;;13.10;99.90;;;;;;5077513;28;20097;-76
2022/07/05 00:25:19;;;;;;;1.30;0.10;;;13.10;99.90;;;;;;5094586;28;20422;-76
2022/07/05 00:27:45;;;;;;;1.27;0.10;;;13.10;99.90;;;;;;5094284;28;20554;-77
2022/07/05 00:30:11;;;;;;;0.85;0.00;;;13.00;99.90;;;;;;5095532;28;20055;-76
2022/07/05 00:32:37;;;;;;;1.65;0.15;;;13.00;99.90;;;;;;5095118;28;20585;-76
2022/07/05 00:35:04;;;;;;;0.88;0.22;;;13.00;99.90;;;;;;5076779;28;20110;-76
2022/07/05 00:37:30;;;;;;;0.35;0.00;;;12.90;99.90;;;;;;5095528;28;20024;-76
2022/07/05 00:39:56;;;;;;;0.68;0.10;;;12.90;99.90;;;;;;5077142;28;20397;-76
2022/07/05 00:42:21;;;;;;;2.05;0.20;;;12.90;99.90;;;;;;5077062;28;20031;-76
2022/07/05 00:44:47;;;;;;;2.75;0.55;;;12.90;99.90;;;;;;5094299;28;20024;-76
2022/07/05 00:47:13;;;;;;;1.20;0.05;;;12.80;99.90;;;;;;5094904;28;20065;-76
2022/07/05 00:49:40;;;;;;;1.05;0.50;;;12.80;99.90;;;;;;5076676;28;20051;-76
2022/07/05 00:52:06;;;;;;;1.05;0.10;;;12.80;99.90;;;;;;5094684;28;20541;-76
2022/07/05 00:54:36;;;;;;;0.63;0.10;;;12.80;99.90;;;;;;5076277;28;20036;-76
2022/07/05 00:57:03;;;;;;;0.17;0.10;;;12.80;99.90;;;;;;5094700;28;20053;-76
2022/07/05 00:59:30;;;;;;;1.30;0.50;;;12.90;99.90;;;;;;5076450;28;20012;-76
2022/07/05 01:01:56;;;;;;;2.63;0.35;;;12.90;99.90;;;;;;5094486;28;20369;-76
2022/07/05 01:04:22;;;;;;;0.47;0.10;;;12.90;99.90;;;;;;5075823;28;20120;-76
2022/07/05 01:06:49;;;;;;;0.95;0.10;;;12.90;99.90;;;;;;5094982;28;20024;-77
2022/07/05 01:09:18;;;;;;;0.90;0.08;;;13.00;99.90;;;;;;5076910;28;20024;-76
2022/07/05 01:11:44;;;;;;;1.23;0.20;;;13.00;99.90;;;;;;5094934;28;20043;-75
2022/07/05 01:14:13;;;;;;;1.95;0.40;;;13.00;99.90;;;;;;5077041;28;20016;-76
2022/07/05 01:16:39;;;;;;;0.82;0.08;;;13.00;99.90;;;;;;5076423;28;20032;-76
2022/07/05 01:19:06;;;;;;;1.48;0.50;;;13.00;99.90;;;;;;5094075;28;20024;-77
2022/07/05 01:21:37;;;;;;;0.75;0.20;;;13.10;99.90;;;;;;5093886;28;20443;-76
2022/07/05 01:24:03;;;;;;;1.15;0.20;;;13.10;99.90;;;;;;5094786;28;20583;-75
2022/07/05 01:26:29;;;;;;;0.88;0.10;;;13.10;99.90;;;;;;5094265;28;20114;-76
2022/07/05 01:28:55;;;;;;;0.60;0.10;;;13.10;99.90;;;;;;5094465;28;20024;-76
2022/07/05 01:31:21;;;;;;;1.77;0.38;;;13.10;99.90;;;;;;5094752;28;20055;-75
2022/07/05 01:33:47;;;;;;;0.30;0.13;;;13.00;99.90;;;;;;5094614;28;20016;-74
2022/07/05 01:36:13;;;;;;;1.67;0.17;;;13.00;99.90;;;;;;5094373;28;20025;-75
2022/07/05 01:38:39;;;;;;;0.93;0.30;;;13.00;99.90;;;;;;5093811;28;20501;-75
2022/07/05 01:41:05;;;;;;;1.40;0.20;;;13.00;99.90;;;;;;5094280;28;20065;-75
2022/07/05 01:43:30;;;;;;;0.20;0.08;;;13.00;99.90;;;;;;5093720;28;20178;-75
2022/07/05 01:46:00;;;;;;;0.57;0.22;;;12.90;99.90;;;;;;5094656;28;20020;-75
2022/07/05 01:48:28;;;;;;;1.33;0.08;;;13.00;99.90;;;;;;5056881;28;20027;-75
2022/07/05 01:50:59;;;;;;;1.57;0.00;;;13.00;99.90;;;;;;5074244;28;20032;-76
2022/07/05 01:53:28;;;;;;;1.40;0.20;;;13.00;99.90;;;;;;5071850;28;20058;-76
2022/07/05 01:55:56;;;;;;;0.40;0.20;;;13.00;99.90;;;;;;5093641;28;20046;-76
2022/07/05 01:58:24;;;;;;;0.93;0.47;;;13.00;99.90;;;;;;5093572;28;20377;-76
2022/07/05 02:00:53;;;;;;;2.28;0.73;;;13.00;99.90;;;;;;5093513;28;20028;-76
2022/07/05 02:03:19;;;;;;;0.43;0.10;;;13.00;99.90;;;;;;5092912;28;20077;-76
2022/07/05 02:05:46;;;;;;;0.40;0.10;;;13.10;99.90;;;;;;5093289;28;20024;-76
2022/07/05 02:08:12;;;;;;;1.50;0.38;;;13.00;99.90;;;;;;5093319;28;20028;-76
2022/07/05 02:10:39;;;;;;;1.95;0.20;;;13.10;99.90;;;;;;5093593;28;20028;-76
2022/07/05 02:13:05;;;;;;;2.63;0.10;;;13.10;99.90;;;;;;5075250;28;20032;-75
2022/07/05 02:15:32;;;;;;;0.20;0.00;;;13.10;99.90;;;;;;5092958;28;20070;-76
2022/07/05 02:17:57;;;;;;;0.60;0.30;;;13.10;99.90;;;;;;5093763;28;20373;-76
2022/07/05 02:20:23;;;;;;;1.65;0.00;;;13.20;99.90;;;;;;5075425;28;20016;-76
2022/07/05 02:22:48;;;;;;;1.40;0.32;;;13.20;99.90;;;;;;5093530;28;20062;-76
2022/07/05 02:25:14;;;;;;;1.75;0.13;;;13.20;99.90;;;;;;5093241;28;20013;-76
2022/07/05 02:27:40;;;;;;;0.50;0.17;;;13.20;99.90;;;;;;5093329;28;20111;-76
2022/07/05 02:30:06;;;;;;;1.20;0.20;;;13.20;99.90;;;;;;5093613;28;20054;-75
2022/07/05 02:32:32;;;;;;;0.63;0.13;;;13.10;99.90;;;;;;5075251;28;20024;-76
2022/07/05 02:34:58;;;;;;;2.05;0.40;;;13.00;99.90;;;;;;5093304;28;20473;-76
2022/07/05 02:37:23;;;;;;;1.65;0.40;;;13.00;99.90;;;;;;5093802;28;20016;-76
2022/07/05 02:39:49;;;;;;;1.48;0.15;;;12.90;99.90;;;;;;5093202;28;20019;-75
2022/07/05 02:42:14;;;;;;;0.38;0.10;;;12.90;99.90;;;;;;5075183;28;20028;-76
2022/07/05 02:44:40;;;;;;;3.95;0.85;;;12.80;99.90;;;;;;5074466;28;20039;-76
2022/07/05 02:47:06;;;;;;;0.90;0.10;;;12.70;99.90;;;;;;5093300;28;20024;-76
2022/07/05 02:49:31;;;;;;;2.20;0.20;;;12.70;99.90;;;;;;5074967;28;20027;-76
2022/07/05 02:51:57;;;;;;;2.45;0.57;;;12.70;99.90;;;;;;5095185;28;20051;-76
2022/07/05 02:54:22;;;;;;;0.75;0.30;;;12.60;99.90;;;;;;5078472;28;20024;-76
2022/07/05 02:56:48;;;;;;;2.95;0.25;;;12.50;99.90;;;;;;5096865;28;20020;-76
2022/07/05 02:59:13;;;;;;;0.98;0.30;;;12.50;99.90;;;;;;5078794;28;20024;-76
2022/07/05 03:01:39;;;;;;;0.47;0.10;;;12.50;99.90;;;;;;5096809;28;20077;-76
2022/07/05 03:04:06;;;;;;;0.98;0.20;;;12.50;99.90;;;;;;5095962;28;20686;-76
2022/07/05 03:06:31;;;;;;;0.43;0.13;;;12.40;99.90;;;;;;5096650;28;20028;-75
2022/07/05 03:08:57;;;;;;;1.38;0.30;;;12.40;99.90;;;;;;5096896;28;20397;-76
2022/07/05 03:11:23;;;;;;;1.35;0.20;;;12.40;99.90;;;;;;5096681;28;20024;-77
2022/07/05 03:13:48;;;;;;;1.35;0.28;;;12.40;99.90;;;;;;5096372;28;20027;-76
2022/07/05 03:16:14;;;;;;;0.10;0.10;;;12.40;99.90;;;;;;5078534;28;20024;-76
2022/07/05 03:18:40;;;;;;;1.23;0.20;;;12.40;99.90;;;;;;5096413;28;20380;-75
2022/07/05 03:21:05;;;;;;;0.55;0.20;;;12.40;99.90;;;;;;5096400;28;20060;-76
2022/07/05 03:23:31;;;;;;;2.10;0.25;;;12.40;99.90;;;;;;5096087;28;20041;-76
2022/07/05 03:25:56;;;;;;;1.30;0.57;;;12.40;99.90;;;;;;5096768;28;20023;-76
2022/07/05 03:28:22;;;;;;;1.58;0.10;;;12.40;99.90;;;;;;5096462;28;20064;-76
2022/07/05 03:30:47;;;;;;;1.15;0.32;;;12.40;99.90;;;;;;5096607;28;20040;-74
2022/07/05 03:33:13;;;;;;;0.45;0.20;;;12.50;99.90;;;;;;5077885;28;20023;-74
2022/07/05 03:35:38;;;;;;;0.90;0.30;;;12.50;99.90;;;;;;5095974;28;20020;-74
2022/07/05 03:38:04;;;;;;;0.28;0.10;;;12.60;99.90;;;;;;5078164;28;20027;-74
2022/07/05 03:40:30;;;;;;;0.60;0.30;;;12.90;99.90;;;;;;5096085;28;20024;-74
2022/07/05 03:42:55;;;;;;;1.15;0.43;;;13.00;99.90;;;;;;5095945;28;20024;-74
2022/07/05 03:45:21;;;;;;;0.30;0.13;;;12.80;99.90;;;;;;5095719;28;20392;-74
2022/07/05 03:47:46;;;;;;;2.92;0.43;;;12.80;99.90;;;;;;5077633;28;20021;-74
2022/07/05 03:50:12;;;;;;;1.17;0.20;;;12.90;99.90;;;;;;5077835;28;20027;-74
2022/07/05 03:52:37;;;;;;;1.17;0.40;;;13.00;99.90;;;;;;5096048;28;20028;-74
2022/07/05 03:55:03;;;;;;;3.25;0.20;;;13.00;99.90;;;;;;5095423;28;20024;-74
2022/07/05 03:57:29;;;;;;;1.85;0.40;;;13.10;99.90;;;;;;5095755;28;20389;-74
2022/07/05 03:59:55;;;;;;;3.33;0.50;;;13.10;99.90;;;;;;5095567;28;20024;-74
2022/07/05 04:02:20;;;;;;;2.83;0.32;;;13.20;99.90;;;;;;5077140;28;20530;-74
2022/07/05 04:04:46;;;;;;;0.50;0.20;;;13.20;99.90;;;;;;5095492;28;20107;-74
2022/07/05 04:07:11;;;;;;;1.50;0.68;;;13.30;99.90;;;;;;5095515;28;20017;-74
2022/07/05 04:09:37;;;;;;;0.45;0.45;;;13.30;99.90;;;;;;5095424;28;20023;-74
2022/07/05 04:12:04;;;;;;;3.33;0.38;;;13.40;99.90;;;;;;5095427;28;20026;-73
2022/07/05 04:14:30;;;;;;;0.98;0.55;;;13.40;99.90;;;;;;5094701;28;20081;-73
2022/07/05 04:16:56;;;;;;;0.50;0.30;;;13.40;99.90;;;;;;5076960;28;20028;-73
2022/07/05 04:19:21;;;;;;;0.93;0.40;;;13.50;99.90;;;;;;5077258;28;20020;-74
2022/07/05 04:21:47;;;;;;;0.85;0.10;;;13.60;99.90;;;;;;5077190;28;20025;-74
2022/07/05 04:24:12;;;;;;;3.80;0.45;;;14.80;99.90;;;;;;5094756;28;20408;-74
2022/07/05 04:26:38;;;;;;;1.60;0.43;;;13.70;99.90;;;;;;5094873;28;20020;-74
2022/07/05 04:29:04;;;;;;;2.22;0.55;;;13.80;99.90;;;;;;5076974;28;20047;-74
2022/07/05 04:31:29;;;;;;;1.33;0.20;;;13.90;99.90;;;;;;5095132;28;20120;-74
2022/07/05 04:33:55;;;;;;;1.83;0.40;;;13.90;99.90;;;;;;5094929;28;20028;-74
2022/07/05 04:36:20;;;;;;;1.70;0.50;;;14.00;99.90;;;;;;5094609;28;20032;-74
2022/07/05 04:38:46;;;;;;;1.65;0.50;;;14.10;99.90;;;;;;5095092;28;20453;-74
2022/07/05 04:41:11;;;;;;;0.70;0.65;;;14.20;99.90;;;;;;5095129;28;20024;-74
2022/07/05 04:43:37;;;;;;;3.03;0.73;;;14.20;99.90;;;;;;5094825;28;20028;-74
2022/07/05 04:46:02;;;;;;;2.00;0.63;;;14.30;99.90;;;;;;5094364;28;20036;-74
2022/07/05 04:48:28;;;;;;;1.00;0.30;;;14.40;99.90;;;;;;5095140;28;20035;-74
2022/07/05 04:50:54;;;;;;;3.22;0.40;;;14.40;99.90;;;;;;5076507;28;20119;-73
2022/07/05 04:53:19;;;;;;;0.45;0.22;;;14.50;99.90;;;;;;5094607;28;20016;-73
2022/07/05 04:55:45;;;;;;;8.57;1.05;;;14.60;99.90;;;;;;5094600;28;20055;-74
2022/07/05 04:58:11;;;;;;;1.98;0.80;;;14.60;99.90;;;;;;5094488;28;20094;-74
2022/07/05 05:00:37;;;;;;;1.95;0.60;;;14.70;99.90;;;;;;5094646;28;20419;-74
2022/07/05 05:03:02;;;;;;;2.38;0.70;;;14.80;99.90;;;;;;5094484;28;20026;-74
2022/07/05 05:05:28;;;;;;;2.75;0.30;;;14.90;99.90;;;;;;5094035;28;20060;-74
2022/07/05 05:07:53;;;;;;;2.00;0.55;;;14.90;99.90;;;;;;5094491;28;20507;-73
2022/07/05 05:10:19;;;;;;;2.08;0.70;;;14.90;99.90;;;;;;5094332;28;20066;-74
2022/07/05 05:12:44;;;;;;;4.82;1.73;;;15.00;99.90;;;;;;5094442;28;20032;-74
2022/07/05 05:15:10;;;;;;;2.92;1.67;;;15.20;99.90;;;;;;5092885;28;20016;-75
2022/07/05 05:17:37;;;;;;;8.68;2.05;;;15.40;99.90;;;;;;5075992;28;20065;-74
2022/07/05 05:20:11;;;;;;;5.07;1.67;;;15.50;99.90;;;;;;5075914;28;20024;-74
2022/07/05 05:22:37;;;;;;;4.90;2.78;;;15.60;99.90;;;;;;5094414;28;20020;-74
2022/07/05 05:25:03;;;;;;;2.90;2.30;;;15.80;99.90;;;;;;5093711;28;20373;-74
2022/07/05 05:27:29;;;;;;;5.55;2.53;;;15.90;99.90;;;;;;5093915;28;20040;-74
2022/07/05 05:29:54;;;;;;;4.88;2.17;;;15.90;99.90;;;;;;5093923;28;20028;-74
2022/07/05 05:32:20;;;;;;;5.18;2.90;;;15.90;99.90;;;;;;5094055;28;20104;-74
2022/07/05 05:34:45;;;;;;;4.50;2.20;;;16.00;99.90;;;;;;5093479;28;20032;-74
2022/07/05 05:37:11;;;;;;;3.33;2.63;;;16.00;99.90;;;;;;5093987;28;20028;-74
2022/07/05 05:39:37;;;;;;;6.47;3.50;;;16.20;99.90;;;;;;5093727;28;20358;-73
2022/07/05 05:42:02;;;;;;;6.82;3.75;;;16.30;99.90;;;;;;5075710;28;20026;-74
2022/07/05 05:44:28;;;;;;;6.55;3.08;;;16.30;99.90;;;;;;5075273;28;20016;-74
2022/07/05 05:46:53;;;;;;;4.78;3.22;;;16.40;99.90;;;;;;5094201;28;20073;-74
2022/07/05 05:49:19;;;;;;;7.40;3.15;;;16.50;99.90;;;;;;5093846;28;20024;-74
2022/07/05 05:51:44;;;;;;;6.53;4.07;;;16.70;99.90;;;;;;5075174;28;20020;-74
2022/07/05 05:54:10;;;;;;;11.75;4.28;;;16.80;99.90;;;;;;5093136;28;20020;-73
2022/07/05 05:56:38;;;;;;;4.88;3.20;;;16.90;99.90;;;;;;5093488;28;20457;-73
2022/07/05 05:59:03;;;;;;;10.02;3.90;;;17.10;99.90;;;;;;5075322;28;20107;-73
2022/07/05 06:01:29;;;;;;;10.95;3.92;;;17.20;99.90;;;;;;5093486;28;20046;-74
2022/07/05 06:03:55;;;;;;;10.43;3.85;;;17.30;99.90;;;;;;5092968;28;20046;-74
2022/07/05 06:06:20;;;;;;;7.85;3.60;;;17.40;99.90;;;;;;5093472;28;20115;-73
2022/07/05 06:08:46;;;;;;;6.68;3.60;;;17.50;99.90;;;;;;5093739;28;20047;-73
2022/07/05 06:11:13;;;;;;;7.63;3.58;;;17.60;99.90;;;;;;5075472;28;20508;-73
2022/07/05 06:13:39;;;;;;;6.07;3.58;;;17.70;99.90;;;;;;5093583;28;20104;-73
2022/07/05 06:16:06;;;;;;;5.40;2.75;;;17.90;99.90;;;;;;5093501;28;20055;-73
2022/07/05 06:18:32;;;;;;;6.60;2.83;;;18.10;99.90;;;;;;5093431;28;20549;-74
2022/07/05 06:20:57;;;;;;;7.00;2.88;;;18.20;99.90;;;;;;5075416;28;20024;-74
2022/07/05 06:23:23;;;;;;;5.90;2.47;;;18.30;99.90;;;;;;5093252;28;20357;-74
2022/07/05 06:25:48;;;;;;;5.38;1.85;;;18.50;99.90;;;;;;5077009;28;20020;-74
2022/07/05 06:28:15;;;;;;;3.22;2.03;;;18.50;99.90;;;;;;5097298;28;20035;-74
2022/07/05 06:30:41;;;;;;;8.95;2.55;;;18.50;99.90;;;;;;5097319;28;20040;-73
2022/07/05 06:33:06;;;;;;;3.00;1.42;;;18.50;99.90;;;;;;5097277;28;20067;-73
2022/07/05 06:35:32;;;;;;;3.83;1.00;;;18.60;99.90;;;;;;5097557;28;20095;-74
2022/07/05 06:37:58;;;;;;;3.55;1.00;;;18.60;99.90;;;;;;5097101;28;20016;-74
2022/07/05 06:40:45;;;;;;;1.00;0.40;;;18.60;99.90;;;;;;5097132;28;20384;-74
2022/07/05 06:43:12;;;;;;;1.38;0.75;;;18.70;99.90;;;;;;5097391;28;20615;-73
2022/07/05 06:45:39;;;;;;;3.22;0.80;;;18.70;99.90;;;;;;5078933;28;20024;-73
2022/07/05 06:48:07;;;;;;;5.47;0.60;;;18.80;99.90;;;;;;5097199;28;20103;-74
2022/07/05 06:50:37;;;;;;;5.30;1.35;;;18.80;99.90;;;;;;5098086;28;20031;-74
2022/07/05 06:53:04;;;;;;;5.97;0.98;;;18.80;99.90;;;;;;5096878;28;20020;-73
2022/07/05 06:55:30;;;;;;;4.47;0.60;;;18.90;99.90;;;;;;5096820;28;20020;-73
2022/07/05 06:58:07;;;;;;;2.92;1.85;;;18.90;99.90;;;;;;5078643;28;20534;-73
2022/07/05 07:00:33;;;;;;;4.93;0.63;;;19.00;99.90;;;;;;5105598;22;20476;-73
2022/07/05 07:02:59;;;;;;;2.42;0.40;;;19.00;99.90;;;;;;5096984;28;20033;-73
2022/07/05 07:05:25;;;;;;;1.05;0.63;;;19.10;99.90;;;;;;5096983;28;20031;-73
2022/07/05 07:10:35;;;;;;;2.33;0.60;;;19.10;99.90;;;;;;5096728;28;20047;-74
2022/07/05 07:13:01;;;;;;;1.60;0.95;;;19.10;99.90;;;;;;5096625;28;20013;-74
2022/07/05 07:15:28;;;;;;;3.53;0.55;;;19.20;99.90;;;;;;5096721;28;20472;-74
2022/07/05 07:17:53;;;;;;;3.50;0.93;;;19.30;99.90;;;;;;5078435;28;20389;-74
2022/07/05 07:20:19;;;;;;;0.68;0.30;;;19.40;99.90;;;;;;5096970;28;20021;-74
2022/07/05 07:22:45;;;;;;;1.00;0.08;;;19.50;99.90;;;;;;5096777;28;20043;-74
2022/07/05 07:25:11;;;;;;;1.23;0.13;;;19.50;99.90;;;;;;5096349;28;20023;-74
2022/07/05 07:27:51;;;;;;;1.15;0.10;;;19.70;99.90;;;;;;5096595;28;20384;-74
2022/07/05 07:30:19;;;;;;;0.70;0.00;;;19.80;99.90;;;;;;5096890;28;20040;-74
2022/07/05 07:32:45;;;;;;;1.93;0.00;;;19.90;99.90;;;;;;5096494;28;20032;-77
2022/07/05 07:35:12;;;;;;;1.05;0.10;;;19.90;99.90;;;;;;5078225;28;20270;-77
2022/07/05 07:37:37;;;;;;;2.60;0.30;;;20.00;99.90;;;;;;5095874;28;20016;-76
2022/07/05 07:40:05;;;;;;;2.78;0.00;;;20.10;99.90;;;;;;5096637;28;20027;-76
2022/07/05 07:42:31;;;;;;;1.05;0.00;;;20.20;99.90;;;;;;5078047;28;20096;-77
2022/07/05 07:44:56;;;;;;;1.55;0.43;;;20.30;99.90;;;;;;5096385;28;20051;-77
2022/07/05 07:47:22;;;;;;;1.95;0.00;;;20.40;99.90;;;;;;5096691;28;20518;-77
2022/07/05 07:49:47;;;;;;;1.58;0.05;;;20.40;99.90;;;;;;5096002;28;20039;-77
2022/07/05 07:52:14;;;;;;;0.93;0.13;;;20.40;99.90;;;;;;5096030;28;20024;-77
2022/07/05 07:54:40;;;;;;;0.52;0.00;;;20.50;99.90;;;;;;5095904;28;20048;-77
2022/07/05 07:57:05;;;;;;;0.85;0.00;;;20.50;99.90;;;;;;5096462;28;20060;-77
2022/07/05 07:59:34;;;;;;;2.28;0.00;;;20.50;99.90;;;;;;5096113;28;20052;-78
2022/07/05 08:02:00;;;;;;;1.48;0.00;;;20.50;99.90;;;;;;5077748;28;20077;-77
2022/07/05 08:04:26;;;;;;;1.33;0.00;;;20.50;99.90;;;;;;5077671;28;20028;-78
2022/07/05 08:06:52;;;;;;;1.75;0.00;;;20.50;99.90;;;;;;5096042;28;20422;-77
2022/07/05 08:09:17;;;;;;;1.35;0.00;;;20.40;99.90;;;;;;5095523;28;20024;-78
2022/07/05 08:11:45;;;;;;;0.20;0.20;;;20.20;99.90;;;;;;5095892;28;20028;-77
2022/07/05 08:14:10;;;;;;;5.47;0.20;;;20.30;99.90;;;;;;5077442;28;20024;-77
2022/07/05 08:16:36;;;;;;;4.40;0.10;;;20.30;99.90;;;;;;5095836;28;20372;-77
2022/07/05 08:21:47;;;;;;;0.45;0.00;;;20.60;99.90;;;;;;5098540;28;20105;-77
2022/07/05 08:24:14;;;;;;;0.40;0.10;;;20.90;99.90;;;;;;5098800;28;20024;-77
2022/07/05 08:26:40;;;;;;;1.13;0.40;;;21.00;99.90;;;;;;5092608;28;20473;-76
2022/07/05 08:29:10;;;;;;;0.82;0.00;;;21.20;99.90;;;;;;5095182;28;20020;-76
2022/07/05 08:31:49;;;;;;;1.23;0.05;;;21.30;99.90;;;;;;5095480;28;20060;-76
2022/07/05 08:34:17;;;;;;;1.55;0.00;;;21.50;99.60;;;;;;5095272;28;20067;-77
2022/07/05 08:36:43;;;;;;;1.65;0.00;;;21.50;98.30;;;;;;5076959;28;20028;-78
2022/07/05 08:39:09;;;;;;;0.63;0.00;;;21.70;95.60;;;;;;5095331;28;20132;-77
2022/07/05 08:41:38;;;;;;;1.40;0.00;;;21.80;96.40;;;;;;5098587;28;20024;-80
2022/07/05 08:44:04;;;;;;;2.63;0.00;;;22.00;98.30;;;;;;5095905;28;20473;-72
2022/07/05 08:46:31;;;;;;;1.45;0.00;;;22.10;98.80;;;;;;5076912;28;20026;-71
2022/07/05 08:49:04;;;;;;;1.05;0.00;;;22.10;93.50;;;;;;5093829;28;20103;-76
2022/07/05 08:51:34;;;;;;;0.63;0.00;;;22.10;94.90;;;;;;5076953;28;20454;-76
2022/07/05 08:54:00;;;;;;;2.45;0.00;;;22.00;92.50;;;;;;5095143;28;20464;-76
2022/07/05 08:56:26;;;;;;;0.13;0.05;;;21.90;96.60;;;;;;5075774;28;20391;-76
2022/07/05 08:58:51;;;;;;;3.42;0.00;;;21.80;95.50;;;;;;5077121;28;20024;-78
2022/07/05 09:01:17;;;;;;;0.28;0.00;;;22.00;92.60;;;;;;5095096;28;20050;-76
2022/07/05 09:03:49;;;;;;;1.77;0.00;;;21.90;93.40;;;;;;5094753;28;20024;-76
2022/07/05 09:06:25;;;;;;;0.60;0.00;;;21.80;95.30;;;;;;5094651;28;20035;-76
2022/07/05 09:08:54;;;;;;;0.30;0.00;;;21.80;95.70;;;;;;5078570;28;20059;-81
2022/07/05 09:11:43;;;;;;;0.10;0.00;;;21.70;93.60;;;;;;5114689;27;20767;-79
2022/07/05 09:14:24;;;;;;;0.52;0.00;;;22.00;92.20;;;;;;5114671;28;20024;-79
2022/07/05 09:16:50;;;;;;;1.65;0.22;;;21.90;91.80;;;;;;5111322;28;20016;-74
2022/07/05 09:19:15;;;;;;;2.50;0.17;;;21.80;92.80;;;;;;5111239;28;20077;-74
2022/07/05 09:21:41;;;;;;;3.72;0.15;;;22.00;94.10;;;;;;5111328;28;20034;-74
2022/07/05 09:24:11;;;;;;;0.55;0.15;;;22.20;92.50;;;;;;5110998;28;20027;-74
2022/07/05 09:26:38;;;;;;;1.20;0.00;;;22.10;90.10;;;;;;5111057;28;20020;-74
2022/07/05 09:29:06;;;;;;;1.27;0.00;;;22.00;91.50;;;;;;5110787;28;20104;-74
2022/07/05 09:31:34;;;;;;;2.53;0.32;;;21.80;92.50;;;;;;5110978;28;20119;-75
2022/07/05 09:34:08;;;;;;;1.05;0.00;;;21.80;94.40;;;;;;5111174;28;20107;-76
2022/07/05 09:36:52;;;;;;;0.73;0.00;;;21.70;94.30;;;;;;5109753;28;20023;-75
2022/07/05 09:39:39;;;;;;;4.53;0.10;;;21.70;96.80;;;;;;5110791;28;20031;-75
2022/07/05 09:42:20;;;;;;;0.43;0.00;;;21.70;95.60;;;;;;5110798;28;20035;-75
2022/07/05 09:44:54;;;;;;;3.58;0.32;;;21.70;91.60;;;;;;5109559;28;20020;-75
2022/07/05 09:47:26;;;;;;;1.77;0.17;;;21.60;95.20;;;;;;5111199;28;20020;-75
2022/07/05 09:49:54;;;;;;;1.65;0.10;;;21.70;93.80;;;;;;5109373;28;20035;-75
2022/07/05 09:52:39;;;;;;;2.15;0.20;;;22.00;94.70;;;;;;5110869;28;20024;-73
2022/07/05 09:55:16;;;;;;;0.57;0.00;;;22.50;88.80;;;;;;5110949;28;20032;-74
2022/07/05 09:57:43;;;;;;;0.20;0.00;;;22.80;87.00;;;;;;5110709;28;20012;-74
2022/07/05 10:00:16;;;;;;;1.05;0.00;;;22.90;90.30;;;;;;5110514;28;20028;-74
2022/07/05 10:02:43;;;;;;;0.47;0.00;;;22.70;89.10;;;;;;5110489;28;20073;-74
2022/07/05 10:05:12;;;;;;;1.10;0.00;;;22.50;92.00;;;;;;5110484;28;20020;-74
2022/07/05 10:07:46;;;;;;;0.00;0.00;;;22.20;92.90;;;;;;5109287;28;20028;-73
2022/07/05 10:10:13;;;;;;;0.47;0.00;;;22.00;94.60;;;;;;5110333;28;20076;-74
2022/07/05 10:12:41;;;;;;;0.43;0.00;;;21.90;95.70;;;;;;5109175;28;20388;-71
2022/07/05 10:15:10;;;;;;;2.83;0.10;;;21.80;95.50;;;;;;5110215;28;20557;-71
2022/07/05 10:17:39;;;;;;;0.50;0.00;;;21.60;96.30;;;;;;5110105;28;20028;-71
2022/07/05 10:20:12;;;;;;;1.38;0.10;;;21.40;96.80;;;;;;5108826;28;20153;-73
2022/07/05 10:22:39;;;;;;;0.38;0.00;;;21.20;95.50;;;;;;5097534;28;20103;-74
2022/07/05 10:25:05;;;;;;;0.10;0.00;;;21.40;96.90;;;;;;5095184;28;20028;-75
2022/07/05 10:27:34;;;;;;;0.52;0.00;;;21.80;94.10;;;;;;5096281;28;20024;-76
2022/07/05 10:30:01;;;;;;;1.17;0.15;;;22.30;94.70;;;;;;5097092;28;20028;-74
2022/07/05 10:32:28;;;;;;;0.15;0.00;;;22.70;91.70;;;;;;5096709;28;20020;-73
2022/07/05 10:34:55;;;;;;;1.02;0.00;;;23.40;92.60;;;;;;5096227;28;20020;-74
2022/07/05 10:37:27;;;;;;;0.65;0.00;;;23.50;87.50;;;;;;5096477;28;20384;-73
2022/07/05 10:39:55;;;;;;;0.32;0.00;;;23.50;86.00;;;;;;5096160;28;20024;-74
2022/07/05 10:42:23;;;;;;;0.73;0.00;;;23.40;91.20;;;;;;5096210;28;20024;-74
2022/07/05 10:44:48;;;;;;;1.92;0.47;;;23.20;91.00;;;;;;5096476;28;20024;-74
2022/07/05 10:47:14;;;;;;;0.80;0.15;;;23.00;90.10;;;;;;5096941;28;20027;-72
2022/07/05 10:49:40;;;;;;;0.90;0.10;;;22.90;91.70;;;;;;5095850;28;20429;-72
2022/07/05 10:52:25;;;;;;;0.82;0.10;;;22.90;91.70;;;;;;5096488;28;20043;-73
2022/07/05 10:55:20;;;;;;;1.25;0.00;;;22.90;92.40;;;;;;5095823;28;20031;-73
2022/07/05 10:58:27;;;;;;;1.95;0.00;;;22.80;92.90;;;;;;5095807;28;20043;-73
2022/07/05 11:01:11;;;;;;;2.45;0.00;;;22.90;92.30;;;;;;5088719;28;20052;-73
2022/07/05 11:04:00;;;;;;;0.17;0.00;;;22.90;87.20;;;;;;5094324;28;20031;-73
2022/07/05 11:06:31;;;;;;;2.05;0.00;;;22.70;91.30;;;;;;5095714;28;20027;-73
2022/07/05 11:08:59;;;;;;;1.60;0.00;;;22.80;92.10;;;;;;5095722;28;20061;-73
2022/07/05 11:11:26;;;;;;;;;;;22.80;92.70;;;;;;5095752;28;20036;-73
2022/07/05 11:13:54;;;;;;;0.28;0.00;;;22.80;92.10;;;;;;5095500;28;19935;-73
2022/07/05 11:16:25;;;;;;;1.08;0.20;;;23.10;92.20;;;;;;5095520;28;20015;-73
2022/07/05 11:18:53;;;;;;;0.52;0.00;;;23.30;88.30;;;;;;5094086;28;20178;-73
2022/07/05 11:21:22;;;;;;;1.00;0.10;;;23.60;90.00;;;;;;5094111;28;20028;-73
2022/07/05 11:23:48;;;;;;;1.05;0.00;;;23.60;85.00;;;;;;5095191;28;20027;-73
2022/07/05 11:26:16;;;;;;;2.05;0.00;;;23.60;82.50;;;;;;5095129;28;20388;-73
2022/07/05 11:28:47;;;;;;;2.25;0.00;;;23.70;82.00;;;;;;5095349;28;20473;-73
2022/07/05 11:31:33;;;;;;;0.57;0.10;;;24.00;87.10;;;;;;5095700;28;20032;-74
2022/07/05 11:34:17;;;;;;;1.33;0.00;;;24.30;83.50;;;;;;5094605;28;20174;-74
2022/07/05 11:36:42;;;;;;;1.13;0.00;;;24.30;79.20;;;;;;5095542;28;20020;-74
2022/07/05 11:39:12;;;;;;;0.55;0.00;;;23.90;81.50;;;;;;5093880;28;20057;-74
2022/07/05 11:41:38;;;;;;;3.08;0.00;;;23.80;80.40;;;;;;5093889;28;20020;-74
2022/07/05 11:44:05;;;;;;;0.75;0.00;;;23.90;82.60;;;;;;5095146;28;20093;-74
2022/07/05 11:46:32;;;;;;;0.32;0.08;;;23.90;77.20;;;;;;5094972;28;20419;-74
2022/07/05 11:48:59;;;;;;;0.00;0.00;;;23.90;81.40;;;;;;5094750;28;20103;-74
2022/07/05 11:51:25;;;;;;;0.00;0.00;;;23.90;80.40;;;;;;5094628;28;20024;-74
2022/07/05 11:53:51;;;;;;;0.25;0.00;;;24.10;78.30;;;;;;5094712;28;20032;-74
2022/07/05 11:56:17;;;;;;;2.40;0.10;;;24.40;76.90;;;;;;5094850;28;20055;-74
2022/07/05 11:58:42;;;;;;;1.27;0.00;;;24.50;69.90;;;;;;5094766;28;20099;-74
2022/07/05 12:01:08;;;;;;;0.22;0.00;;;24.30;75.90;;;;;;5094501;28;20057;-74
2022/07/05 12:03:34;;;;;;;0.50;0.00;;;24.40;73.50;;;;;;5094523;28;20032;-74
2022/07/05 12:06:10;;;;;;;1.30;0.25;;;24.60;77.00;;;;;;5093274;28;20020;-74
2022/07/05 12:08:36;;;;;;;3.97;0.00;;;24.80;77.20;;;;;;5094278;28;20024;-74
2022/07/05 12:13:49;;;;;;;1.00;0.00;;;24.80;76.20;;;;;;5094935;28;20058;-74
2022/07/05 12:16:15;;;;;;;0.90;0.32;;;24.70;68.60;;;;;;5094429;28;20017;-74
2022/07/05 12:18:55;;;;;;;0.68;0.00;;;25.00;70.80;;;;;;5093301;28;20392;-75
2022/07/05 12:21:22;;;;;;;0.03;0.00;;;25.40;73.20;;;;;;5094471;28;20035;-74
2022/07/05 12:23:49;;;;;;;0.00;0.00;;;25.80;72.60;;;;;;5094777;28;20023;-74
2022/07/05 12:26:16;;;;;;;1.92;0.00;;;26.20;69.80;;;;;;5093380;28;20374;-74
2022/07/05 12:28:43;;;;;;;0.60;0.08;;;26.40;72.10;;;;;;5093289;28;20016;-73
2022/07/05 12:31:16;;;;;;;0.10;0.00;;;26.20;65.70;;;;;;5092436;28;20031;-74
2022/07/05 12:33:41;;;;;;;1.25;0.10;;;25.80;66.40;;;;;;5092322;28;20028;-74
2022/07/05 12:36:12;;;;;;;2.75;0.00;;;25.90;65.40;;;;;;5092794;28;20020;-74
2022/07/05 12:38:38;;;;;;;1.75;0.00;;;26.20;65.20;;;;;;5092366;28;20017;-74
2022/07/05 12:41:03;;;;;;;0.10;0.00;;;26.40;63.60;;;;;;5092741;28;20031;-74
2022/07/05 12:43:29;;;;;;;0.68;0.00;;;26.90;67.60;;;;;;5092584;28;20055;-74
2022/07/05 12:46:06;;;;;;;2.17;0.00;;;27.10;62.20;;;;;;5093481;28;20064;-74
2022/07/05 12:48:33;;;;;;;0.00;0.00;;;26.80;60.30;;;;;;5093780;28;20115;-74
2022/07/05 12:50:59;;;;;;;0.00;0.00;;;26.70;60.90;;;;;;5092465;28;20070;-74
2022/07/05 12:58:56;;;;;;;1.77;0.13;;;27.20;59.60;;;;;;5094068;28;20089;-74
2022/07/05 13:01:28;;;;;;;1.40;0.00;;;27.30;59.60;;;;;;5093702;28;20435;-73
2022/07/05 13:04:14;;;;;;;0.20;0.00;;;27.40;59.90;;;;;;5094080;28;20024;-73